Time;durP1;ratioP1;P1;durP2;ratioP2;P2;SDS_P1;SDS_P2;PMS_P1;PMS_P2;Temp;Humidity;BMP_temperature;BMP_pressure;BME280_temperature;BME280_humidity;BME280_pressure;Samples;Min_cycle;Max_cycle;Signal;HPM_P1;HPM_P2
2021/11/19 00:01:31;;;;;;;0.30;0.30;;;4.00;99.90;;;;;;5013518;28;20030;-72
2021/11/19 00:03:57;;;;;;;0.43;0.43;;;4.10;99.90;;;;;;5013605;28;20108;-72
2021/11/19 00:06:24;;;;;;;1.42;0.82;;;4.10;99.90;;;;;;5013372;28;20026;-72
2021/11/19 00:08:50;;;;;;;0.30;0.30;;;4.00;99.90;;;;;;5013647;28;20026;-72
2021/11/19 00:11:23;;;;;;;0.70;0.68;;;3.90;99.90;;;;;;5014230;28;20026;-72
2021/11/19 00:13:49;;;;;;;0.60;0.60;;;3.90;99.90;;;;;;4997198;28;20026;-72
2021/11/19 00:16:17;;;;;;;0.30;0.30;;;3.80;99.90;;;;;;5063851;23;20421;-88
2021/11/19 00:18:44;;;;;;;3.63;1.95;;;3.60;99.90;;;;;;5036884;28;20051;-88
2021/11/19 00:21:11;;;;;;;1.48;1.38;;;3.50;99.90;;;;;;5036787;28;20036;-88
2021/11/19 00:23:39;;;;;;;0.50;0.50;;;3.30;99.90;;;;;;5036753;28;20025;-88
2021/11/19 00:26:05;;;;;;;0.52;0.52;;;3.30;99.90;;;;;;5036501;28;20039;-87
2021/11/19 00:28:31;;;;;;;0.30;0.30;;;3.40;99.90;;;;;;5036560;28;20021;-88
2021/11/19 00:30:57;;;;;;;0.30;0.30;;;3.40;99.90;;;;;;5036422;28;20376;-89
2021/11/19 00:33:23;;;;;;;0.73;0.73;;;3.40;99.90;;;;;;5036199;28;20047;-88
2021/11/19 00:35:49;;;;;;;0.30;0.30;;;3.40;99.90;;;;;;5036158;28;20028;-88
2021/11/19 00:38:17;;;;;;;0.50;0.50;;;3.40;99.90;;;;;;5036206;28;20033;-89
2021/11/19 00:40:52;;;;;;;0.30;0.30;;;3.30;99.90;;;;;;5036112;28;20036;-88
2021/11/19 00:43:19;;;;;;;0.25;0.25;;;3.30;99.90;;;;;;5036447;28;20109;-89
2021/11/19 00:45:46;;;;;;;0.60;0.57;;;3.20;99.90;;;;;;5035701;28;20025;-88
2021/11/19 00:48:12;;;;;;;0.55;0.47;;;3.20;99.90;;;;;;5036194;28;20364;-88
2021/11/19 00:50:55;;;;;;;1.13;1.08;;;3.30;99.90;;;;;;5035847;28;20071;-88
2021/11/19 00:53:21;;;;;;;0.52;0.52;;;3.30;99.90;;;;;;5036310;28;20397;-89
2021/11/19 00:55:47;;;;;;;1.75;1.65;;;3.30;99.90;;;;;;5036012;28;20029;-89
2021/11/19 00:58:15;;;;;;;2.65;2.42;;;3.30;99.90;;;;;;5037099;28;20078;-89
2021/11/19 01:00:48;;;;;;;0.98;0.98;;;3.40;99.90;;;;;;5036775;28;20056;-88
2021/11/19 01:03:15;;;;;;;0.52;0.52;;;3.50;99.90;;;;;;5036258;28;20033;-88
2021/11/19 01:05:41;;;;;;;0.38;0.38;;;3.60;99.90;;;;;;5052338;28;20071;-88
2021/11/19 01:08:07;;;;;;;1.17;1.10;;;3.60;99.90;;;;;;5035762;28;20021;-89
2021/11/19 01:10:36;;;;;;;1.05;0.80;;;3.70;99.90;;;;;;5035837;28;20025;-88
2021/11/19 01:13:03;;;;;;;2.80;0.90;;;3.60;99.90;;;;;;5035710;28;20128;-88
2021/11/19 01:15:36;;;;;;;1.75;1.65;;;3.60;99.90;;;;;;5035632;28;20041;-89
2021/11/19 01:18:11;;;;;;;0.75;0.52;;;3.60;99.90;;;;;;5035904;28;20549;-88
2021/11/19 01:20:53;;;;;;;0.60;0.60;;;3.50;99.90;;;;;;5035779;28;20032;-88
2021/11/19 01:23:22;;;;;;;1.10;1.00;;;3.50;99.90;;;;;;5034645;28;20021;-88
2021/11/19 01:25:57;;;;;;;0.32;0.32;;;3.50;99.90;;;;;;5035617;28;20021;-88
2021/11/19 01:28:24;;;;;;;2.50;1.35;;;3.40;99.90;;;;;;5068863;28;20035;-88
2021/11/19 01:30:57;;;;;;;0.20;0.20;;;3.40;99.90;;;;;;5035568;28;20057;-88
2021/11/19 01:33:24;;;;;;;0.88;0.65;;;3.50;99.90;;;;;;5035621;28;20029;-88
2021/11/19 01:35:50;;;;;;;0.30;0.30;;;3.50;99.90;;;;;;5034973;28;20025;-89
2021/11/19 01:38:16;;;;;;;0.30;0.30;;;3.60;99.90;;;;;;5035306;28;20482;-88
2021/11/19 01:40:48;;;;;;;0.30;0.30;;;3.80;99.90;;;;;;5035158;28;20148;-88
2021/11/19 01:43:14;;;;;;;0.20;0.20;;;3.90;99.90;;;;;;5035412;28;20470;-88
2021/11/19 01:46:04;;;;;;;0.30;0.30;;;3.80;99.90;;;;;;5034717;28;20033;-89
2021/11/19 01:48:39;;;;;;;0.20;0.20;;;3.80;99.90;;;;;;5034896;28;20396;-89
2021/11/19 01:51:31;;;;;;;0.30;0.30;;;3.90;99.90;;;;;;5034832;28;20108;-88
2021/11/19 01:54:04;;;;;;;6.15;1.10;;;3.90;99.90;;;;;;5034964;28;20025;-88
2021/11/19 01:56:35;;;;;;;0.50;0.50;;;3.80;99.90;;;;;;5034626;28;20102;-88
2021/11/19 01:59:10;;;;;;;0.60;0.60;;;3.70;99.90;;;;;;5034917;28;20029;-89
2021/11/19 02:02:06;;;;;;;0.40;0.40;;;3.60;99.90;;;;;;5035019;28;20033;-88
2021/11/19 02:04:39;;;;;;;0.73;0.65;;;3.50;99.90;;;;;;5047454;28;20029;-88
2021/11/19 02:07:13;;;;;;;0.52;0.47;;;3.50;99.90;;;;;;5034838;28;20060;-88
2021/11/19 02:09:51;;;;;;;0.40;0.40;;;3.30;99.90;;;;;;5034739;28;20486;-87
2021/11/19 02:12:40;;;;;;;0.30;0.30;;;3.40;99.90;;;;;;5034899;28;20032;-88
2021/11/19 02:15:22;;;;;;;0.70;0.70;;;3.50;99.90;;;;;;5017890;28;20029;-88
2021/11/19 02:17:52;;;;;;;0.30;0.30;;;3.60;99.90;;;;;;5042449;28;20032;-88
2021/11/19 02:20:39;;;;;;;0.60;0.60;;;3.50;99.90;;;;;;5059779;28;20036;-87
2021/11/19 02:23:21;;;;;;;0.30;0.30;;;3.60;99.90;;;;;;5063782;28;20033;-88
2021/11/19 02:25:56;;;;;;;0.32;0.32;;;3.60;99.90;;;;;;5035546;28;20454;-89
2021/11/19 02:28:26;;;;;;;0.35;0.35;;;3.50;99.90;;;;;;5034648;28;20111;-90
2021/11/19 02:31:00;;;;;;;1.27;1.27;;;3.40;99.90;;;;;;5034355;28;20120;-87
2021/11/19 02:33:29;;;;;;;0.28;0.28;;;3.40;99.90;;;;;;5034353;28;20036;-88
2021/11/19 02:35:58;;;;;;;0.30;0.30;;;3.40;99.90;;;;;;5044340;28;20020;-88
2021/11/19 02:38:30;;;;;;;0.30;0.30;;;3.40;99.90;;;;;;5055311;28;20060;-88
2021/11/19 02:40:56;;;;;;;0.20;0.20;;;3.40;99.90;;;;;;5038288;28;20025;-88
2021/11/19 02:43:42;;;;;;;0.40;0.40;;;3.30;99.90;;;;;;5034245;28;20029;-87
2021/11/19 02:46:08;;;;;;;0.30;0.30;;;3.30;99.90;;;;;;5034120;28;20344;-88
2021/11/19 02:48:36;;;;;;;0.20;0.20;;;3.40;99.90;;;;;;5034255;28;20075;-88
2021/11/19 02:51:04;;;;;;;14.45;1.27;;;3.50;99.90;;;;;;5034238;28;20159;-88
2021/11/19 02:53:30;;;;;;;0.30;0.30;;;3.40;99.90;;;;;;5033976;28;20028;-89
2021/11/19 02:55:57;;;;;;;0.45;0.45;;;3.40;99.90;;;;;;5033855;28;20195;-88
2021/11/19 02:58:28;;;;;;;1.88;1.00;;;3.50;99.90;;;;;;5034430;28;20079;-88
2021/11/19 03:01:05;;;;;;;1.02;1.00;;;3.40;99.90;;;;;;5066942;28;20025;-88
2021/11/19 03:03:31;;;;;;;0.50;0.50;;;3.30;99.90;;;;;;5034606;28;20409;-88
2021/11/19 03:05:57;;;;;;;0.50;0.50;;;3.20;99.90;;;;;;5067445;28;20021;-87
2021/11/19 03:08:23;;;;;;;0.70;0.40;;;3.30;99.90;;;;;;5034407;28;20394;-88
2021/11/19 03:10:54;;;;;;;0.55;0.55;;;3.30;99.90;;;;;;5034211;28;20025;-88
2021/11/19 03:13:22;;;;;;;0.50;0.50;;;3.30;99.90;;;;;;5034531;28;20053;-88
2021/11/19 03:15:49;;;;;;;0.30;0.30;;;3.40;99.90;;;;;;5066972;28;20052;-88
2021/11/19 03:18:17;;;;;;;0.30;0.30;;;3.60;99.90;;;;;;5034078;28;20033;-88
2021/11/19 03:20:46;;;;;;;0.30;0.30;;;3.80;99.90;;;;;;5034182;28;20072;-88
2021/11/19 03:23:12;;;;;;;0.32;0.32;;;4.10;99.90;;;;;;5034080;28;20048;-88
2021/11/19 03:25:40;;;;;;;6.47;5.97;;;4.20;99.90;;;;;;5050392;28;20059;-88
2021/11/19 03:28:08;;;;;;;0.22;0.22;;;4.40;99.90;;;;;;5050369;28;20025;-87
2021/11/19 03:30:36;;;;;;;0.30;0.30;;;4.50;99.90;;;;;;5033937;28;20025;-88
2021/11/19 03:33:03;;;;;;;0.30;0.30;;;4.60;99.90;;;;;;5034145;28;20053;-88
2021/11/19 03:35:29;;;;;;;2.47;1.02;;;4.60;99.90;;;;;;5033679;28;20036;-87
2021/11/19 03:37:56;;;;;;;0.30;0.30;;;4.50;99.90;;;;;;5034133;28;20097;-86
2021/11/19 03:40:26;;;;;;;1.60;1.50;;;4.40;99.90;;;;;;5034035;28;20061;-88
2021/11/19 03:42:52;;;;;;;0.30;0.30;;;4.30;99.90;;;;;;5034128;28;20120;-88
2021/11/19 03:45:22;;;;;;;0.30;0.30;;;4.20;99.90;;;;;;5033312;28;20023;-88
2021/11/19 03:47:51;;;;;;;1.05;1.05;;;3.90;99.90;;;;;;5037078;28;20418;-89
2021/11/19 03:50:26;;;;;;;3.08;0.60;;;4.00;99.90;;;;;;5037872;28;20027;-88
2021/11/19 03:52:52;;;;;;;0.30;0.30;;;4.10;99.90;;;;;;5037669;28;20032;-88
2021/11/19 03:55:25;;;;;;;0.30;0.30;;;4.00;99.90;;;;;;5037327;28;20047;-87
2021/11/19 03:57:51;;;;;;;0.30;0.30;;;3.90;99.90;;;;;;5037410;28;20024;-88
2021/11/19 04:00:44;;;;;;;0.25;0.25;;;3.60;99.90;;;;;;5037368;28;20546;-88
2021/11/19 04:03:12;;;;;;;1.15;1.15;;;3.60;99.90;;;;;;5049796;28;20033;-88
2021/11/19 04:05:39;;;;;;;0.30;0.30;;;3.70;99.90;;;;;;5037406;28;20020;-88
2021/11/19 04:08:05;;;;;;;0.40;0.40;;;3.60;99.90;;;;;;5070411;28;20522;-89
2021/11/19 04:10:32;;;;;;;0.30;0.30;;;3.50;99.90;;;;;;5036920;28;20078;-89
2021/11/19 04:12:58;;;;;;;0.30;0.30;;;3.40;99.90;;;;;;5037468;28;20032;-88
2021/11/19 04:15:29;;;;;;;0.40;0.40;;;3.40;99.90;;;;;;5037329;28;20029;-88
2021/11/19 04:17:56;;;;;;;0.38;0.38;;;3.40;99.90;;;;;;5036953;28;20039;-87
2021/11/19 04:20:23;;;;;;;0.30;0.30;;;3.30;99.90;;;;;;5037050;28;20124;-89
2021/11/19 04:22:49;;;;;;;0.30;0.30;;;3.30;99.90;;;;;;5038519;28;20166;-87
2021/11/19 04:25:18;;;;;;;0.30;0.30;;;3.10;99.90;;;;;;5041209;28;20025;-87
2021/11/19 04:27:44;;;;;;;0.30;0.30;;;3.00;99.90;;;;;;5039505;28;20029;-88
2021/11/19 04:30:17;;;;;;;0.40;0.40;;;3.00;99.90;;;;;;5036818;28;20025;-88
2021/11/19 04:32:44;;;;;;;0.30;0.30;;;3.10;99.90;;;;;;5036843;28;20029;-88
2021/11/19 04:35:10;;;;;;;0.30;0.30;;;3.10;99.90;;;;;;5036671;28;20504;-88
2021/11/19 04:37:37;;;;;;;0.30;0.30;;;3.10;99.90;;;;;;5036845;28;20072;-88
2021/11/19 04:40:05;;;;;;;0.30;0.30;;;3.20;99.90;;;;;;5036672;28;20025;-88
2021/11/19 04:42:31;;;;;;;0.30;0.30;;;3.30;99.90;;;;;;5037120;28;20028;-88
2021/11/19 04:44:56;;;;;;;2.85;2.70;;;3.20;99.90;;;;;;5036824;28;20025;-88
2021/11/19 04:47:22;;;;;;;0.38;0.38;;;3.10;99.90;;;;;;5058238;28;20025;-88
2021/11/19 04:49:48;;;;;;;0.40;0.40;;;3.10;99.90;;;;;;5058912;28;20025;-88
2021/11/19 04:52:14;;;;;;;0.30;0.30;;;3.10;99.90;;;;;;5044767;28;20032;-88
2021/11/19 04:54:41;;;;;;;0.30;0.30;;;3.20;99.90;;;;;;5036355;28;20486;-88
2021/11/19 04:57:07;;;;;;;0.30;0.30;;;3.30;99.90;;;;;;5035941;28;20028;-88
2021/11/19 04:59:33;;;;;;;0.40;0.40;;;3.50;99.90;;;;;;5035796;28;20033;-88
2021/11/19 05:02:07;;;;;;;0.30;0.30;;;3.50;99.90;;;;;;5036173;28;20033;-87
2021/11/19 05:04:33;;;;;;;1.00;1.00;;;3.60;99.90;;;;;;5036183;28;20029;-87
2021/11/19 05:06:59;;;;;;;0.28;0.28;;;3.50;99.90;;;;;;5039777;28;20020;-88
2021/11/19 05:09:29;;;;;;;0.30;0.30;;;3.50;99.90;;;;;;5061034;28;20078;-86
2021/11/19 05:12:06;;;;;;;0.30;0.30;;;3.50;99.90;;;;;;5052941;28;20127;-88
2021/11/19 05:14:33;;;;;;;0.30;0.30;;;3.70;99.90;;;;;;5035820;28;20371;-88
2021/11/19 05:17:00;;;;;;;0.45;0.45;;;3.70;99.90;;;;;;5035937;28;20020;-88
2021/11/19 05:19:26;;;;;;;0.30;0.30;;;3.60;99.90;;;;;;5036065;28;20032;-87
2021/11/19 05:21:52;;;;;;;0.38;0.38;;;3.40;99.90;;;;;;5069223;28;20612;-88
2021/11/19 05:24:19;;;;;;;0.30;0.30;;;3.30;99.90;;;;;;5036672;28;20501;-87
2021/11/19 05:26:46;;;;;;;0.30;0.30;;;3.20;99.90;;;;;;5053174;28;20036;-87
2021/11/19 05:29:13;;;;;;;0.98;0.98;;;3.10;99.90;;;;;;5067510;28;20455;-87
2021/11/19 05:31:39;;;;;;;0.60;0.60;;;3.20;99.90;;;;;;5036350;28;20120;-87
2021/11/19 05:34:05;;;;;;;0.30;0.30;;;3.30;99.90;;;;;;5069443;28;20029;-88
2021/11/19 05:36:31;;;;;;;0.30;0.30;;;3.20;99.90;;;;;;5035381;28;20393;-87
2021/11/19 05:38:57;;;;;;;0.30;0.30;;;3.20;99.90;;;;;;5035979;28;20021;-89
2021/11/19 05:41:25;;;;;;;0.40;0.40;;;3.10;99.90;;;;;;5053308;28;20032;-88
2021/11/19 05:43:52;;;;;;;0.20;0.20;;;3.20;99.90;;;;;;5035630;28;20025;-88
2021/11/19 05:46:21;;;;;;;0.40;0.40;;;3.30;99.90;;;;;;5035350;28;20021;-88
2021/11/19 05:48:49;;;;;;;0.40;0.40;;;3.50;99.90;;;;;;5035356;28;20551;-88
2021/11/19 05:51:15;;;;;;;1.90;0.55;;;3.60;99.90;;;;;;5035605;28;20025;-88
2021/11/19 05:53:43;;;;;;;0.68;0.68;;;3.30;99.90;;;;;;5035426;28;20029;-87
2021/11/19 05:56:10;;;;;;;0.85;0.85;;;3.00;99.90;;;;;;5036148;28;20026;-89
2021/11/19 05:58:36;;;;;;;1.17;1.13;;;2.80;99.90;;;;;;5035672;28;20029;-88
2021/11/19 06:01:06;;;;;;;0.35;0.35;;;2.80;99.90;;;;;;5035738;28;20063;-89
2021/11/19 06:03:33;;;;;;;1.05;1.00;;;2.90;99.90;;;;;;5036560;28;20022;-89
2021/11/19 06:05:58;;;;;;;0.30;0.30;;;2.90;99.90;;;;;;5035406;28;20478;-88
2021/11/19 06:08:25;;;;;;;0.38;0.38;;;2.90;99.90;;;;;;5035478;28;20064;-88
2021/11/19 06:11:03;;;;;;;0.30;0.30;;;3.20;99.90;;;;;;5035489;28;20082;-88
2021/11/19 06:13:32;;;;;;;0.30;0.30;;;3.30;99.90;;;;;;5035389;28;20039;-88
2021/11/19 06:16:02;;;;;;;0.55;0.55;;;3.40;99.90;;;;;;5097631;22;20045;-73
2021/11/19 06:18:35;;;;;;;0.50;0.50;;;3.30;99.90;;;;;;5032062;28;20468;-72
2021/11/19 06:21:21;;;;;;;0.47;0.47;;;3.30;99.90;;;;;;5031960;28;20029;-73
2021/11/19 06:23:51;;;;;;;1.35;1.23;;;3.20;99.90;;;;;;5032023;28;20021;-73
2021/11/19 06:26:21;;;;;;;2.20;1.67;;;3.10;99.90;;;;;;5030509;28;20037;-73
2021/11/19 06:28:50;;;;;;;1.00;0.98;;;3.00;99.90;;;;;;5030665;28;20380;-73
2021/11/19 06:31:19;;;;;;;0.52;0.52;;;2.90;99.90;;;;;;5014018;28;20036;-72
2021/11/19 06:33:45;;;;;;;0.98;0.75;;;2.90;99.90;;;;;;5031872;28;20021;-73
2021/11/19 06:36:11;;;;;;;0.70;0.70;;;2.80;99.90;;;;;;5031561;28;20029;-73
2021/11/19 06:38:38;;;;;;;0.45;0.45;;;2.80;99.90;;;;;;5047198;28;20032;-72
2021/11/19 06:41:04;;;;;;;1.00;0.98;;;2.80;99.90;;;;;;5031538;28;20500;-72
2021/11/19 06:43:31;;;;;;;0.50;0.50;;;3.00;99.90;;;;;;5031725;28;20052;-73
2021/11/19 06:45:57;;;;;;;0.52;0.52;;;3.00;99.90;;;;;;5031399;28;20507;-73
2021/11/19 06:48:23;;;;;;;0.30;0.30;;;3.10;99.90;;;;;;5031335;28;20096;-73
2021/11/19 06:50:48;;;;;;;0.85;0.85;;;3.10;99.90;;;;;;5030339;28;20156;-73
2021/11/19 06:53:14;;;;;;;1.85;1.20;;;3.10;99.90;;;;;;5030489;28;20025;-77
2021/11/19 06:55:41;;;;;;;3.78;1.50;;;3.30;99.90;;;;;;5019589;28;20025;-77
2021/11/19 06:58:08;;;;;;;0.40;0.40;;;3.70;99.90;;;;;;5041733;28;20104;-75
2021/11/19 07:00:40;;;;;;;0.30;0.30;;;3.70;99.90;;;;;;5029992;28;20499;-75
2021/11/19 07:03:07;;;;;;;0.30;0.30;;;3.90;99.90;;;;;;5029354;28;20123;-74
2021/11/19 07:05:34;;;;;;;0.30;0.30;;;3.90;99.90;;;;;;5035228;28;20021;-74
2021/11/19 07:08:05;;;;;;;0.30;0.30;;;3.80;99.90;;;;;;5030313;28;20477;-76
2021/11/19 07:10:33;;;;;;;0.30;0.30;;;3.90;99.90;;;;;;5030100;28;20017;-73
2021/11/19 07:12:59;;;;;;;0.60;0.60;;;3.90;99.90;;;;;;5031499;28;20034;-73
2021/11/19 07:15:26;;;;;;;1.05;0.95;;;3.70;99.90;;;;;;5030860;28;20018;-72
2021/11/19 07:17:52;;;;;;;0.30;0.30;;;3.60;99.90;;;;;;5030047;28;20484;-73
2021/11/19 07:20:21;;;;;;;0.30;0.30;;;3.60;99.90;;;;;;5031316;28;20033;-73
2021/11/19 07:22:47;;;;;;;0.30;0.30;;;3.70;99.90;;;;;;5034702;28;20030;-73
2021/11/19 07:25:16;;;;;;;0.30;0.30;;;3.80;99.90;;;;;;5034956;28;20118;-73
2021/11/19 07:27:43;;;;;;;0.98;0.95;;;3.90;99.90;;;;;;5034956;28;20496;-73
2021/11/19 07:30:13;;;;;;;0.32;0.32;;;3.80;99.90;;;;;;5033878;28;20028;-73
2021/11/19 07:32:40;;;;;;;0.82;0.82;;;3.90;99.90;;;;;;5032967;28;20030;-73
2021/11/19 07:35:08;;;;;;;0.73;0.52;;;4.10;99.90;;;;;;5045338;28;20098;-73
2021/11/19 07:37:34;;;;;;;0.40;0.40;;;4.10;99.90;;;;;;5045634;28;20100;-73
2021/11/19 07:40:00;;;;;;;0.40;0.40;;;4.10;99.90;;;;;;5034744;28;20108;-73
2021/11/19 07:42:27;;;;;;;0.30;0.30;;;4.20;99.90;;;;;;5048786;28;20029;-73
2021/11/19 07:44:52;;;;;;;1.58;1.08;;;4.20;99.90;;;;;;5054599;28;20055;-72
2021/11/19 07:47:18;;;;;;;0.40;0.40;;;4.20;99.90;;;;;;5051694;28;20065;-72
2021/11/19 07:49:44;;;;;;;0.73;0.73;;;3.90;99.90;;;;;;5037088;28;20033;-73
2021/11/19 07:52:10;;;;;;;0.30;0.30;;;4.00;99.90;;;;;;5038090;28;20029;-73
2021/11/19 07:54:37;;;;;;;0.40;0.40;;;4.00;99.90;;;;;;5033182;28;20388;-73
2021/11/19 07:57:04;;;;;;;1.58;1.20;;;4.00;99.90;;;;;;5034636;28;20026;-72
2021/11/19 07:59:31;;;;;;;0.38;0.32;;;4.00;99.90;;;;;;5031586;28;20461;-72
2021/11/19 08:01:59;;;;;;;0.20;0.20;;;4.00;99.90;;;;;;5034312;28;20027;-72
2021/11/19 08:04:27;;;;;;;0.30;0.30;;;4.20;99.90;;;;;;5034069;28;20024;-72
2021/11/19 08:06:53;;;;;;;0.20;0.20;;;4.50;99.90;;;;;;5038764;28;20013;-73
2021/11/19 08:09:19;;;;;;;0.30;0.30;;;4.60;99.90;;;;;;5052849;28;20017;-73
2021/11/19 08:11:45;;;;;;;0.30;0.30;;;4.70;99.90;;;;;;5051402;28;20549;-73
2021/11/19 08:14:11;;;;;;;0.30;0.30;;;4.90;99.90;;;;;;5053943;28;20029;-73
2021/11/19 08:16:50;;;;;;;0.30;0.30;;;5.10;99.90;;;;;;5040634;28;20029;-73
2021/11/19 08:19:37;;;;;;;0.30;0.30;;;5.30;99.90;;;;;;5031070;28;20639;-73
2021/11/19 08:22:03;;;;;;;0.30;0.30;;;5.40;99.90;;;;;;5014761;28;20036;-73
2021/11/19 08:24:30;;;;;;;4.75;0.57;;;5.50;99.90;;;;;;5033781;28;20052;-73
2021/11/19 08:27:03;;;;;;;1.05;1.05;;;5.50;99.90;;;;;;5031005;28;20021;-73
2021/11/19 08:29:31;;;;;;;0.30;0.30;;;5.60;99.90;;;;;;5032042;28;20028;-73
2021/11/19 08:31:58;;;;;;;0.30;0.30;;;5.60;99.90;;;;;;5031947;28;20112;-73
2021/11/19 08:34:24;;;;;;;0.60;0.60;;;5.60;99.90;;;;;;5031895;28;20028;-73
2021/11/19 08:36:50;;;;;;;3.70;0.85;;;5.50;99.90;;;;;;5032631;28;20036;-72
2021/11/19 08:39:24;;;;;;;0.60;0.60;;;5.40;99.90;;;;;;5033349;28;20473;-72
2021/11/19 08:41:51;;;;;;;0.70;0.45;;;5.40;99.90;;;;;;5032186;28;20036;-72
2021/11/19 08:44:18;;;;;;;0.73;0.73;;;5.40;99.90;;;;;;5033627;28;20061;-72
2021/11/19 08:46:47;;;;;;;1.05;0.95;;;5.40;99.90;;;;;;5032342;28;20455;-72
2021/11/19 08:49:17;;;;;;;0.30;0.30;;;5.40;99.90;;;;;;5033677;28;20521;-72
2021/11/19 08:51:44;;;;;;;0.30;0.30;;;5.40;99.90;;;;;;5033773;28;20440;-71
2021/11/19 08:54:11;;;;;;;0.50;0.50;;;5.50;99.90;;;;;;5034004;28;20022;-73
2021/11/19 08:56:50;;;;;;;0.40;0.40;;;5.40;99.90;;;;;;5033400;28;20022;-73
2021/11/19 08:59:17;;;;;;;0.47;0.47;;;5.40;99.90;;;;;;5032313;28;20026;-73
2021/11/19 09:01:47;;;;;;;5.00;1.77;;;5.50;99.90;;;;;;5033486;28;20017;-73
2021/11/19 09:04:12;;;;;;;0.30;0.30;;;5.60;99.90;;;;;;5033455;28;20026;-73
2021/11/19 09:06:39;;;;;;;0.30;0.30;;;5.60;99.90;;;;;;5031983;28;20029;-73
2021/11/19 09:09:07;;;;;;;0.20;0.20;;;5.80;99.90;;;;;;5032290;28;20112;-73
2021/11/19 09:11:33;;;;;;;0.20;0.20;;;5.90;99.90;;;;;;5041415;28;20033;-73
2021/11/19 09:13:59;;;;;;;0.85;0.85;;;6.10;99.90;;;;;;5034465;28;20108;-73
2021/11/19 09:16:29;;;;;;;2.15;2.05;;;6.30;99.90;;;;;;5052954;28;20032;-73
2021/11/19 09:19:01;;;;;;;0.70;0.70;;;6.30;99.90;;;;;;5053034;28;20025;-73
2021/11/19 09:21:30;;;;;;;0.52;0.52;;;6.30;99.90;;;;;;5036537;28;20033;-72
2021/11/19 09:24:00;;;;;;;0.20;0.20;;;6.50;99.90;;;;;;5032742;28;20025;-73
2021/11/19 09:26:34;;;;;;;0.20;0.20;;;6.80;99.90;;;;;;5031555;28;20092;-73
2021/11/19 09:29:03;;;;;;;0.30;0.30;;;7.20;99.90;;;;;;5052481;28;20029;-73
2021/11/19 09:31:29;;;;;;;0.30;0.30;;;7.50;99.90;;;;;;5052727;28;20111;-73
2021/11/19 09:33:55;;;;;;;0.20;0.20;;;7.60;99.90;;;;;;5051803;28;20063;-73
2021/11/19 09:36:21;;;;;;;0.22;0.22;;;7.80;99.90;;;;;;5016482;28;20036;-73
2021/11/19 09:38:47;;;;;;;0.20;0.20;;;8.30;99.90;;;;;;5014987;28;20029;-73
2021/11/19 09:41:18;;;;;;;0.20;0.20;;;8.70;99.90;;;;;;5030760;28;20408;-73
2021/11/19 09:44:13;;;;;;;0.20;0.20;;;8.90;99.90;;;;;;5030716;28;20036;-73
2021/11/19 09:47:06;;;;;;;0.20;0.20;;;8.90;99.90;;;;;;5032231;28;20037;-73
2021/11/19 09:50:10;;;;;;;0.20;0.20;;;9.30;99.90;;;;;;5031014;28;20032;-73
2021/11/19 09:53:07;;;;;;;0.20;0.20;;;9.90;99.90;;;;;;5014936;28;20044;-73
2021/11/19 09:55:51;;;;;;;0.20;0.20;;;10.30;99.90;;;;;;5032718;28;20022;-74
2021/11/19 09:58:35;;;;;;;0.20;0.20;;;10.70;99.40;;;;;;5031018;28;20436;-73
2021/11/19 10:01:06;;;;;;;8.30;3.83;;;10.90;97.30;;;;;;5014449;28;20052;-73
2021/11/19 10:03:53;;;;;;;0.20;0.20;;;11.40;96.90;;;;;;5032273;28;20174;-73
2021/11/19 10:06:29;;;;;;;0.63;0.63;;;11.40;92.30;;;;;;5031787;28;20540;-73
2021/11/19 10:09:18;;;;;;;0.10;0.10;;;11.20;93.00;;;;;;5014363;28;20065;-73
2021/11/19 10:11:54;;;;;;;0.10;0.10;;;11.90;91.80;;;;;;5032297;28;20022;-73
2021/11/19 10:14:31;;;;;;;0.15;0.15;;;12.50;90.10;;;;;;5030831;28;20032;-73
2021/11/19 10:17:27;;;;;;;0.10;0.10;;;13.10;87.00;;;;;;5030369;28;20033;-74
2021/11/19 10:20:04;;;;;;;0.10;0.10;;;13.00;85.60;;;;;;5032128;28;20389;-73
2021/11/19 10:22:34;;;;;;;0.17;0.17;;;12.90;85.70;;;;;;5030801;28;20029;-73
2021/11/19 10:25:27;;;;;;;0.10;0.10;;;13.00;83.70;;;;;;5031802;28;20033;-74
2021/11/19 10:27:56;;;;;;;0.17;0.17;;;13.00;82.90;;;;;;5031668;28;20509;-73
2021/11/19 10:30:40;;;;;;;0.28;0.28;;;13.60;80.00;;;;;;5031363;28;20473;-73
2021/11/19 10:33:23;;;;;;;0.20;0.20;;;13.80;79.20;;;;;;5027073;28;20536;-73
2021/11/19 10:36:01;;;;;;;0.10;0.10;;;13.80;80.70;;;;;;5031492;28;20113;-73
2021/11/19 10:38:38;;;;;;;0.10;0.10;;;14.10;79.30;;;;;;5030635;28;20100;-73
2021/11/19 10:41:41;;;;;;;0.13;0.13;;;13.90;78.00;;;;;;5041885;28;20051;-73
2021/11/19 10:44:35;;;;;;;0.10;0.10;;;13.90;76.80;;;;;;5039899;28;20033;-73
2021/11/19 10:47:04;;;;;;;0.20;0.20;;;13.30;80.00;;;;;;5038142;28;20108;-73
2021/11/19 10:49:58;;;;;;;0.20;0.20;;;13.10;80.80;;;;;;5031445;28;20104;-73
2021/11/19 10:52:40;;;;;;;0.10;0.10;;;13.30;81.20;;;;;;5028887;28;20128;-74
2021/11/19 10:55:43;;;;;;;0.10;0.10;;;13.50;79.30;;;;;;5030634;28;20083;-74
2021/11/19 10:58:35;;;;;;;0.20;0.20;;;13.50;78.30;;;;;;5034338;28;20029;-74
2021/11/19 11:01:20;;;;;;;1.23;1.23;;;12.90;79.20;;;;;;5035366;28;20037;-73
2021/11/19 11:03:57;;;;;;;0.20;0.20;;;12.80;81.30;;;;;;5034177;28;20497;-74
2021/11/19 11:06:46;;;;;;;0.20;0.20;;;12.50;80.80;;;;;;5035469;28;20026;-74
2021/11/19 11:09:29;;;;;;;0.20;0.20;;;12.40;80.80;;;;;;5037392;28;20466;-73
2021/11/19 11:12:18;;;;;;;0.45;0.45;;;12.10;82.40;;;;;;5048297;28;20025;-73
2021/11/19 11:14:58;;;;;;;0.20;0.20;;;11.90;85.00;;;;;;5036395;28;20428;-73
2021/11/19 11:17:33;;;;;;;0.40;0.40;;;11.80;85.10;;;;;;5040634;28;20040;-73
2021/11/19 11:20:01;;;;;;;0.30;0.30;;;11.60;86.20;;;;;;5053842;28;20033;-73
2021/11/19 11:22:34;;;;;;;0.40;0.40;;;11.30;88.00;;;;;;5055118;28;20029;-73
2021/11/19 11:25:06;;;;;;;0.17;0.17;;;10.90;89.30;;;;;;5053322;28;20024;-73
2021/11/19 11:27:53;;;;;;;0.40;0.40;;;10.80;90.40;;;;;;5036451;28;20140;-73
2021/11/19 11:30:24;;;;;;;0.47;0.47;;;10.50;90.60;;;;;;5034835;28;20053;-73
2021/11/19 11:32:53;;;;;;;0.50;0.50;;;10.40;91.90;;;;;;5035186;28;20385;-73
2021/11/19 11:35:48;;;;;;;0.20;0.20;;;10.40;91.90;;;;;;5033346;28;20385;-73
2021/11/19 11:38:20;;;;;;;0.20;0.20;;;10.30;92.60;;;;;;5035059;28;20031;-73
2021/11/19 11:41:10;;;;;;;0.20;0.20;;;10.20;92.60;;;;;;5034784;28;20021;-72
2021/11/19 11:43:40;;;;;;;0.38;0.30;;;10.30;93.20;;;;;;5045038;28;20033;-73
2021/11/19 11:46:24;;;;;;;0.20;0.20;;;10.40;92.60;;;;;;5051744;28;20021;-73
2021/11/19 11:49:20;;;;;;;0.20;0.20;;;10.50;92.70;;;;;;5052772;28;20029;-73
2021/11/19 11:52:11;;;;;;;0.13;0.13;;;10.80;92.10;;;;;;5051394;28;20036;-73
2021/11/19 11:55:02;;;;;;;10.70;9.32;;;11.40;91.00;;;;;;5052691;28;20399;-73
2021/11/19 11:57:43;;;;;;;0.20;0.20;;;12.00;90.10;;;;;;5052892;28;20027;-73
2021/11/19 12:00:27;;;;;;;0.10;0.10;;;12.50;87.10;;;;;;5052384;28;20060;-73
2021/11/19 12:02:56;;;;;;;0.20;0.20;;;12.70;84.90;;;;;;5054193;28;20029;-73
2021/11/19 12:05:44;;;;;;;1.27;1.17;;;12.70;83.60;;;;;;5052789;28;20035;-73
2021/11/19 12:08:43;;;;;;;0.20;0.20;;;12.50;83.80;;;;;;5052242;28;20561;-73
2021/11/19 12:11:39;;;;;;;0.25;0.25;;;12.60;83.70;;;;;;5054249;28;20638;-73
2021/11/19 12:14:14;;;;;;;0.10;0.10;;;12.90;81.20;;;;;;5054278;28;20029;-73
2021/11/19 12:16:54;;;;;;;0.20;0.20;;;12.70;83.30;;;;;;5070614;23;20045;-86
2021/11/19 12:19:26;;;;;;;0.20;0.20;;;13.00;82.10;;;;;;5032100;28;20026;-86
2021/11/19 12:22:07;;;;;;;0.70;0.15;;;13.40;79.80;;;;;;5031061;28;20022;-86
2021/11/19 12:25:11;;;;;;;0.10;0.10;;;13.30;77.40;;;;;;5030472;28;20066;-87
2021/11/19 12:27:46;;;;;;;0.20;0.20;;;13.10;76.40;;;;;;5013096;28;20025;-86
2021/11/19 12:30:29;;;;;;;0.40;0.40;;;13.10;77.50;;;;;;5029922;28;20025;-86
2021/11/19 12:33:15;;;;;;;0.45;0.45;;;13.10;77.90;;;;;;5031676;28;20021;-86
2021/11/19 12:35:50;;;;;;;0.10;0.10;;;12.50;78.10;;;;;;5046475;28;20030;-87
2021/11/19 12:38:19;;;;;;;0.10;0.10;;;12.00;82.30;;;;;;5025074;28;20068;-87
2021/11/19 12:41:32;;;;;;;0.15;0.15;;;11.80;87.20;;;;;;5025955;28;20089;-86
2021/11/19 12:44:26;;;;;;;0.85;0.30;;;11.80;87.90;;;;;;5030617;28;20035;-86
2021/11/19 12:47:04;;;;;;;0.40;0.40;;;11.90;87.40;;;;;;5024820;28;20057;-86
2021/11/19 12:49:54;;;;;;;0.10;0.10;;;12.10;87.80;;;;;;5033598;28;20025;-86
2021/11/19 12:52:43;;;;;;;0.45;0.45;;;12.10;87.30;;;;;;5049113;28;20043;-87
2021/11/19 12:55:15;;;;;;;0.20;0.20;;;11.60;87.50;;;;;;5044403;28;20028;-87
2021/11/19 12:57:57;;;;;;;0.40;0.40;;;12.00;87.30;;;;;;5053918;28;20033;-87
2021/11/19 13:00:35;;;;;;;0.10;0.10;;;12.30;85.10;;;;;;5039172;28;20033;-87
2021/11/19 13:03:44;;;;;;;0.10;0.10;;;12.70;83.30;;;;;;5021339;28;20035;-87
2021/11/19 13:06:17;;;;;;;0.10;0.10;;;13.20;79.80;;;;;;5033687;28;20478;-87
2021/11/19 13:08:54;;;;;;;0.10;0.10;;;12.60;78.50;;;;;;5026234;28;20030;-88
2021/11/19 13:11:28;;;;;;;0.20;0.20;;;12.60;80.10;;;;;;5042052;28;20029;-87
2021/11/19 13:14:13;;;;;;;0.10;0.10;;;12.40;80.70;;;;;;5033484;28;20021;-87
2021/11/19 13:16:45;;;;;;;0.65;0.65;;;12.20;81.40;;;;;;5021774;28;20112;-86
2021/11/19 13:19:30;;;;;;;0.20;0.20;;;12.10;82.40;;;;;;5022396;28;20395;-86
2021/11/19 13:22:27;;;;;;;0.10;0.10;;;11.90;82.30;;;;;;5039234;28;20020;-87
2021/11/19 13:24:56;;;;;;;0.35;0.35;;;11.90;82.60;;;;;;5041318;28;20112;-87